McColl, Texas
Current Conditions -  °F | °C
As of 2:53 PM on Tuesday 21 Oct 2014 (Local Time) from KMFE Reporting Station
Light Rain Light Rain  
Wind Chill: 76°   Ceiling: 7500
Heat Index: 76°   Visibility: 3mi
Dew Point: 70°   Wind: 9mph
Humidity: 82%   Direction: 40°NE
Pressure: 29.92"   Gusts: 20mph
Location:  26.2031°N, 98.2299°W
Report Text: KMFE 211953Z 04008G17KT 3SM -RA FEW060 OVC075 24/21 A2992 RMK AO2 SLP131 P0001 T02440211
Loading
Personal Weather Stations






























Interactive Weather Map
Tropical Storm Tracking
New forecast layout! Learn more

10-Day Weather Forecast

Advertisements
Track Severe Weather on mobile